Buckeye Airport

About
Name: Buckeye Airport
Identifier:  BXK/KBXK
Local Time:  25. Aug 01:52 MST
Location
Flights per Day
0 flights
Distance: 725km (450mi)
Punctuality
50% (0 flights per day delayed)
Delay Average: 10 minutes
Current Weather
 30 C (Humidity: 58%)
  10kt (18km/h / 11mph) from 230°
18 knots Gusts

  16km (10 mi.)
 METAR KBXK 250835Z AUTO 23010G18KT 10SM 30/21 A2994 RMK A01

Current Flights

Departures
Number Departure To Airline
Arrivals
Number Arrival From Airline

Current Delays

Departures
N/A
Arrivals
N/A

Destinations

Top Destinations
Airport Flights
per week
Seats
per week
  Orange County (SNA) 0 - 0 0
  San Diego (MYF) 0 - 0 0
  Amarillo (AMA) 0 - 0 0

Airlines & Planes

Top Airlines
Airline Flights
per Day
Seats
per Day
  Flybe Nordic 0 -
  Nolinor Aviation 0 -
Top Plane Types
Model Flights Seats
Piper PA-46-350P Malibu Mirage 0.1/day - 0
Piper PA28-181 0.0/day - 0